createdAt,value
2023-10-21T00:03:13.851Z,57.30
2023-10-21T00:06:38.153Z,56.82
2023-10-21T00:10:00.531Z,57.04
2023-10-21T00:13:23.410Z,57.04
2023-10-21T00:16:45.130Z,57.15
2023-10-21T00:20:10.330Z,56.89
2023-10-21T00:23:32.366Z,57.11
2023-10-21T00:26:54.259Z,57.13
2023-10-21T00:30:15.972Z,56.80
2023-10-21T00:33:40.514Z,56.44
2023-10-21T00:37:02.184Z,56.44
2023-10-21T00:40:23.920Z,57.10
2023-10-21T00:43:45.702Z,56.93
2023-10-21T00:47:07.327Z,57.09
2023-10-21T00:50:32.092Z,56.83
2023-10-21T00:53:55.262Z,56.62
2023-10-21T00:57:21.667Z,56.28
2023-10-21T01:00:46.115Z,56.37
2023-10-21T01:04:09.868Z,56.51
2023-10-21T01:07:36.434Z,56.31
2023-10-21T01:10:59.696Z,55.95
2023-10-21T01:14:21.606Z,56.17
2023-10-21T01:17:49.035Z,56.09
2023-10-21T01:21:11.246Z,56.14
2023-10-21T01:24:35.215Z,56.21
2023-10-21T01:27:57.151Z,56.05
2023-10-21T01:31:18.774Z,55.95
2023-10-21T01:34:43.108Z,55.87
2023-10-21T01:38:07.003Z,56.05
2023-10-21T01:41:33.089Z,56.06
2023-10-21T01:44:59.447Z,56.16
2023-10-21T01:48:23.553Z,56.14
2023-10-21T01:51:45.464Z,56.30
2023-10-21T01:55:11.362Z,56.33
2023-10-21T01:58:33.306Z,56.48
2023-10-21T02:01:55.206Z,56.50
2023-10-21T02:05:23.592Z,56.72
2023-10-21T02:08:47.914Z,56.88
2023-10-21T02:12:10.293Z,56.90
2023-10-21T02:15:36.301Z,57.29
2023-10-21T02:18:57.942Z,57.46
2023-10-21T02:22:19.672Z,57.33
2023-10-21T02:25:41.311Z,57.43
2023-10-21T02:29:03.154Z,57.69
2023-10-21T02:32:24.857Z,57.24
2023-10-21T02:35:52.220Z,57.32
2023-10-21T02:39:14.549Z,57.48
2023-10-21T02:42:37.231Z,57.89
2023-10-21T02:46:10.727Z,57.82
2023-10-21T02:49:35.109Z,58.10
2023-10-21T02:52:56.927Z,58.17
2023-10-21T02:56:18.608Z,58.31
2023-10-21T02:59:40.185Z,58.82
2023-10-21T03:03:04.673Z,58.74
2023-10-21T03:06:28.502Z,59.12
2023-10-21T03:09:52.603Z,59.35
2023-10-21T03:13:14.196Z,59.07
2023-10-21T03:16:38.132Z,59.45
2023-10-21T03:20:04.573Z,59.90
2023-10-21T03:23:26.258Z,60.02
2023-10-21T03:26:47.909Z,60.35
2023-10-21T03:30:13.222Z,60.18
2023-10-21T03:33:42.478Z,60.05
2023-10-21T03:37:04.613Z,60.41
2023-10-21T03:40:28.717Z,60.60
2023-10-21T03:43:51.452Z,60.93
2023-10-21T03:47:13.108Z,60.90
2023-10-21T03:50:37.012Z,61.04
2023-10-21T03:53:59.095Z,60.99
2023-10-21T03:57:20.841Z,61.39
2023-10-21T04:00:44.745Z,61.59
2023-10-21T04:04:10.319Z,61.72
2023-10-21T04:07:32.016Z,61.36
2023-10-21T04:10:54.279Z,61.73
2023-10-21T04:14:15.875Z,61.78
2023-10-21T04:17:39.570Z,61.61
2023-10-21T04:21:03.466Z,61.69
2023-10-21T04:24:25.160Z,61.98
2023-10-21T04:27:46.846Z,61.87
2023-10-21T04:31:11.074Z,61.84
2023-10-21T04:34:35.894Z,61.92
2023-10-21T04:37:57.976Z,61.81
2023-10-21T04:41:19.638Z,62.34
2023-10-21T04:44:41.321Z,63.16
2023-10-21T04:48:04.954Z,64.32
2023-10-21T04:51:26.754Z,65.85
2023-10-21T04:54:48.477Z,66.53
2023-10-21T04:58:10.154Z,67.07
2023-10-21T05:01:34.246Z,68.25
2023-10-21T05:04:58.198Z,69.26
2023-10-21T05:08:19.818Z,71.11
2023-10-21T05:11:43.881Z,72.67
2023-10-21T05:15:06.167Z,73.72
2023-10-21T05:18:30.308Z,75.11
2023-10-21T05:21:56.873Z,75.90
2023-10-21T05:25:18.918Z,76.75
2023-10-21T05:28:45.411Z,77.50
2023-10-21T05:32:07.306Z,78.16
2023-10-21T05:35:28.898Z,77.66
2023-10-21T05:38:50.997Z,78.28
2023-10-21T05:42:14.829Z,78.93
2023-10-21T05:45:38.831Z,78.60
2023-10-21T05:49:00.437Z,79.00
2023-10-21T05:52:26.768Z,78.84
2023-10-21T05:55:48.513Z,78.66
2023-10-21T05:59:10.177Z,78.89
2023-10-21T06:02:31.947Z,79.33
2023-10-21T06:05:55.916Z,79.69
2023-10-21T06:09:17.637Z,79.53
2023-10-21T06:12:41.309Z,79.97
2023-10-21T06:16:05.375Z,79.70
2023-10-21T06:19:27.137Z,80.03
2023-10-21T06:22:51.215Z,80.31
2023-10-21T06:26:12.930Z,80.44
2023-10-21T06:29:36.093Z,80.56
2023-10-21T06:32:58.506Z,81.46
2023-10-21T06:36:20.679Z,81.55
2023-10-21T06:39:42.751Z,81.21
2023-10-21T06:43:07.078Z,81.39
2023-10-21T06:46:28.930Z,81.50
2023-10-21T06:49:50.596Z,81.93
2023-10-21T06:53:12.242Z,81.50
2023-10-21T06:56:34.326Z,81.93
2023-10-21T06:59:58.515Z,81.90
2023-10-21T07:03:20.314Z,82.04
2023-10-21T07:06:46.557Z,81.87
2023-10-21T07:10:08.605Z,81.87
2023-10-21T07:13:33.048Z,81.92
2023-10-21T07:16:54.727Z,81.72
2023-10-21T07:20:16.457Z,81.62
2023-10-21T07:23:38.124Z,81.97
2023-10-21T07:26:59.920Z,81.90
2023-10-21T07:30:25.593Z,81.95
2023-10-21T07:33:52.073Z,81.84
2023-10-21T07:37:14.715Z,81.87
2023-10-21T07:40:36.542Z,82.00
2023-10-21T07:43:58.124Z,81.75
2023-10-21T07:47:23.729Z,80.98
2023-10-21T07:50:45.431Z,80.85
2023-10-21T07:54:07.252Z,80.62
2023-10-21T07:57:34.825Z,81.24
2023-10-21T08:00:58.772Z,81.28
2023-10-21T08:04:22.799Z,80.83
2023-10-21T08:07:46.954Z,80.78
2023-10-21T08:11:13.228Z,80.72
2023-10-21T08:14:38.365Z,80.42
2023-10-21T08:18:00.270Z,80.37
2023-10-21T08:21:27.013Z,80.60
2023-10-21T08:24:48.682Z,80.12
2023-10-21T08:28:14.808Z,79.47
2023-10-21T08:31:38.985Z,79.42
2023-10-21T08:35:00.648Z,79.06
2023-10-21T08:38:22.378Z,79.13
2023-10-21T08:41:45.230Z,79.37
2023-10-21T08:45:10.636Z,78.63
2023-10-21T08:48:34.361Z,78.67
2023-10-21T08:51:57.603Z,78.90
2023-10-21T08:55:23.238Z,79.35
2023-10-21T08:58:45.021Z,78.43
2023-10-21T09:02:06.992Z,78.60
2023-10-21T09:05:28.916Z,78.30
2023-10-21T09:08:53.116Z,78.42
2023-10-21T09:12:15.141Z,78.64
2023-10-21T09:15:39.287Z,78.55
2023-10-21T09:19:02.075Z,78.66
2023-10-21T09:22:24.581Z,78.89
2023-10-21T09:25:55.816Z,79.07
2023-10-21T09:29:20.619Z,78.79
2023-10-21T09:32:45.480Z,78.73
2023-10-21T09:36:22.116Z,78.93
2023-10-21T09:39:47.642Z,79.29
2023-10-21T09:43:15.150Z,78.93
2023-10-21T09:46:40.897Z,78.64
2023-10-21T09:50:07.609Z,78.12
2023-10-21T09:53:41.631Z,77.60
2023-10-21T09:57:04.188Z,77.74
2023-10-21T10:00:31.261Z,78.02
2023-10-21T10:03:56.920Z,77.17
2023-10-21T10:07:33.712Z,77.16
2023-10-21T10:11:03.442Z,75.81
2023-10-21T10:14:29.659Z,74.08
2023-10-21T10:17:54.352Z,74.52
2023-10-21T10:21:19.288Z,74.09
2023-10-21T10:24:53.071Z,73.86
2023-10-21T10:28:18.949Z,72.20
2023-10-21T10:31:49.712Z,72.71
2023-10-21T10:35:32.104Z,72.73
2023-10-21T10:38:56.093Z,72.56
2023-10-21T10:42:17.892Z,72.97
2023-10-21T10:45:40.359Z,73.07
2023-10-21T10:49:06.397Z,73.52
2023-10-21T10:52:29.792Z,74.36
2023-10-21T10:55:58.193Z,74.58
2023-10-21T10:59:24.452Z,74.75
2023-10-21T11:02:46.182Z,75.25
2023-10-21T11:06:08.028Z,74.98
2023-10-21T11:09:32.241Z,74.99
2023-10-21T11:12:54.198Z,75.05
2023-10-21T11:16:17.059Z,74.57
2023-10-21T11:19:40.904Z,75.00
2023-10-21T11:23:13.842Z,73.53
2023-10-21T11:26:36.585Z,73.83
2023-10-21T11:30:02.076Z,73.87
2023-10-21T11:33:23.935Z,74.22
2023-10-21T11:36:50.313Z,73.98
2023-10-21T11:40:17.131Z,73.50
2023-10-21T11:43:46.144Z,73.94
2023-10-21T11:47:10.920Z,72.95
2023-10-21T11:50:35.033Z,73.57
2023-10-21T11:53:56.730Z,73.71
2023-10-21T11:57:37.320Z,73.41
2023-10-21T12:01:20.235Z,73.08
2023-10-21T12:04:47.734Z,73.21
2023-10-21T12:08:27.929Z,73.30
2023-10-21T12:12:01.617Z,72.58
2023-10-21T12:15:44.250Z,72.43
2023-10-21T12:19:24.306Z,73.41
2023-10-21T12:23:07.025Z,74.09
2023-10-21T12:26:48.594Z,74.06
2023-10-21T12:30:33.805Z,74.21
2023-10-21T12:34:14.108Z,75.05
2023-10-21T12:37:41.669Z,74.90
2023-10-21T12:41:18.758Z,75.77
2023-10-21T12:44:48.889Z,74.98
2023-10-21T12:48:10.619Z,74.94
2023-10-21T12:51:32.736Z,75.08
2023-10-21T12:54:54.378Z,75.57
2023-10-21T12:58:16.107Z,75.82
2023-10-21T13:01:39.731Z,75.55
2023-10-21T13:05:01.917Z,76.31
2023-10-21T13:08:23.552Z,76.84
2023-10-21T13:11:45.161Z,77.11
2023-10-21T13:15:13.226Z,77.33
2023-10-21T13:18:35.291Z,77.04
2023-10-21T13:22:02.183Z,77.27
2023-10-21T13:25:31.335Z,77.59
2023-10-21T13:28:54.183Z,77.96
2023-10-21T13:32:17.472Z,77.66
2023-10-21T13:35:39.113Z,77.70
2023-10-21T13:39:01.677Z,77.35
2023-10-21T13:42:23.457Z,77.34
2023-10-21T13:45:47.451Z,77.22
2023-10-21T13:49:15.376Z,77.40
2023-10-21T13:52:37.568Z,77.41
2023-10-21T13:56:07.616Z,77.02
2023-10-21T13:59:32.983Z,77.04
2023-10-21T14:02:56.843Z,76.97
2023-10-21T14:06:20.872Z,77.17
2023-10-21T14:09:43.380Z,77.03
2023-10-21T14:13:06.072Z,77.21
2023-10-21T14:16:30.578Z,77.09
2023-10-21T14:19:54.832Z,77.38
2023-10-21T14:23:19.525Z,77.94
2023-10-21T14:26:46.383Z,77.74
2023-10-21T14:30:11.390Z,77.93
2023-10-21T14:33:34.105Z,77.95
2023-10-21T14:36:55.764Z,78.45
2023-10-21T14:40:17.372Z,78.30
2023-10-21T14:43:43.480Z,78.12
2023-10-21T14:47:05.485Z,78.15
2023-10-21T14:50:28.693Z,78.73
2023-10-21T14:53:50.364Z,79.28
2023-10-21T14:57:14.508Z,79.24
2023-10-21T15:00:37.698Z,79.43
2023-10-21T15:04:01.892Z,79.29
2023-10-21T15:07:26.020Z,79.21
2023-10-21T15:10:48.246Z,79.20
2023-10-21T15:14:09.968Z,79.60
2023-10-21T15:17:36.454Z,79.76
2023-10-21T15:21:10.061Z,79.87
2023-10-21T15:24:31.737Z,79.89
2023-10-21T15:27:56.164Z,79.93
2023-10-21T15:31:18.736Z,79.49
2023-10-21T15:34:48.198Z,79.44
2023-10-21T15:38:09.857Z,79.41
2023-10-21T15:41:33.497Z,79.06
2023-10-21T15:44:57.307Z,79.33
2023-10-21T15:48:24.206Z,79.35
2023-10-21T15:51:46.025Z,79.41
2023-10-21T15:55:08.924Z,79.59
2023-10-21T15:58:33.062Z,79.71
2023-10-21T16:01:54.752Z,79.62
2023-10-21T16:05:17.118Z,79.59
2023-10-21T16:08:41.666Z,79.67
2023-10-21T16:12:06.457Z,79.64
2023-10-21T16:15:31.778Z,79.49
2023-10-21T16:18:55.778Z,79.56
2023-10-21T16:22:17.515Z,79.93
2023-10-21T16:25:40.624Z,79.96
2023-10-21T16:29:02.434Z,80.52
2023-10-21T16:32:24.095Z,80.33
2023-10-21T16:35:46.893Z,80.74
2023-10-21T16:39:08.629Z,80.98
2023-10-21T16:42:32.641Z,81.39
2023-10-21T16:45:54.315Z,81.97
2023-10-21T16:49:18.761Z,82.09
2023-10-21T16:52:40.360Z,82.51
2023-10-21T16:56:04.213Z,82.63
2023-10-21T16:59:28.479Z,82.70
2023-10-21T17:02:50.172Z,82.77
2023-10-21T17:06:14.283Z,82.71
2023-10-21T17:09:38.402Z,82.89
2023-10-21T17:13:00.169Z,83.02
2023-10-21T17:16:21.920Z,83.14
2023-10-21T17:19:45.763Z,83.88
2023-10-21T17:23:07.423Z,84.22
2023-10-21T17:26:29.045Z,85.00
2023-10-21T17:29:55.685Z,84.39
2023-10-21T17:33:19.779Z,84.95
2023-10-21T17:36:41.457Z,85.74
2023-10-21T17:40:08.586Z,86.30
2023-10-21T17:43:30.235Z,87.15
2023-10-21T17:46:51.862Z,86.70
2023-10-21T17:50:18.225Z,87.10
2023-10-21T17:53:42.275Z,87.40
2023-10-21T17:57:06.981Z,87.40
2023-10-21T18:00:31.471Z,86.24
2023-10-21T18:03:56.230Z,86.01
2023-10-21T18:07:20.143Z,86.52
2023-10-21T18:10:41.811Z,87.25
2023-10-21T18:14:05.786Z,87.42
2023-10-21T18:17:27.828Z,87.46
2023-10-21T18:20:54.251Z,87.89
2023-10-21T18:24:16.500Z,87.84
2023-10-21T18:27:40.480Z,88.14
2023-10-21T18:31:07.241Z,88.03
2023-10-21T18:34:29.099Z,87.57
2023-10-21T18:37:52.693Z,87.19
2023-10-21T18:41:14.362Z,87.01
2023-10-21T18:44:36.203Z,89.79
2023-10-21T18:47:58.089Z,89.73
2023-10-21T18:51:33.031Z,88.38
2023-10-21T18:54:55.671Z,87.71
2023-10-21T18:58:17.551Z,87.55
2023-10-21T19:01:44.094Z,83.97
2023-10-21T19:05:06.227Z,83.07
2023-10-21T19:08:30.112Z,84.12
2023-10-21T19:11:52.139Z,84.51
2023-10-21T19:15:13.736Z,85.03
2023-10-21T19:18:37.813Z,85.87
2023-10-21T19:22:00.132Z,86.11
2023-10-21T19:25:25.044Z,86.53
2023-10-21T19:28:48.927Z,87.06
2023-10-21T19:32:14.263Z,87.29
2023-10-21T19:35:38.273Z,87.57
2023-10-21T19:39:00.271Z,87.75
2023-10-21T19:42:21.968Z,87.88
2023-10-21T19:45:45.235Z,88.34
2023-10-21T19:49:06.952Z,88.56
2023-10-21T19:52:31.079Z,88.49
2023-10-21T19:55:59.727Z,88.76
2023-10-21T19:59:21.632Z,89.03
2023-10-21T20:02:43.365Z,89.25
2023-10-21T20:06:11.309Z,89.13
2023-10-21T20:09:38.167Z,88.93
2023-10-21T20:13:00.027Z,89.27
2023-10-21T20:16:24.263Z,89.16
2023-10-21T20:19:46.419Z,89.17
2023-10-21T20:23:10.376Z,88.94
2023-10-21T20:26:32.059Z,88.80
2023-10-21T20:29:53.729Z,89.26
2023-10-21T20:33:20.237Z,90.04
2023-10-21T20:36:41.982Z,90.07
2023-10-21T20:40:06.459Z,90.28
2023-10-21T20:43:30.361Z,90.11
2023-10-21T20:46:54.443Z,89.63
2023-10-21T20:50:20.147Z,89.60
2023-10-21T20:53:44.255Z,89.49
2023-10-21T20:57:05.928Z,89.81
2023-10-21T21:00:31.428Z,90.14
2023-10-21T21:03:53.430Z,90.33
2023-10-21T21:07:17.500Z,90.31
2023-10-21T21:10:39.442Z,90.55
2023-10-21T21:14:01.860Z,90.57
2023-10-21T21:17:25.745Z,90.39
2023-10-21T21:20:50.477Z,90.38
2023-10-21T21:24:14.636Z,90.36
2023-10-21T21:27:42.274Z,90.25
2023-10-21T21:31:09.126Z,90.45
2023-10-21T21:34:33.720Z,89.93
2023-10-21T21:37:55.337Z,89.58
2023-10-21T21:41:21.266Z,89.56
2023-10-21T21:44:42.904Z,89.75
2023-10-21T21:48:05.408Z,90.04
2023-10-21T21:51:27.320Z,89.86
2023-10-21T21:54:49.117Z,89.56
2023-10-21T21:58:11.806Z,89.44
2023-10-21T22:01:33.722Z,89.58
2023-10-21T22:04:55.396Z,89.64
2023-10-21T22:08:17.063Z,89.87
2023-10-21T22:11:38.690Z,89.94
2023-10-21T22:15:00.429Z,89.73
2023-10-21T22:18:22.678Z,89.83
2023-10-21T22:21:48.827Z,89.94
2023-10-21T22:25:27.306Z,89.77
2023-10-21T22:28:48.924Z,89.34
2023-10-21T22:32:10.656Z,89.38
2023-10-21T22:35:34.755Z,89.46
2023-10-21T22:38:59.940Z,89.20
2023-10-21T22:42:21.980Z,89.44
2023-10-21T22:45:48.799Z,89.28
2023-10-21T22:49:11.029Z,89.44
2023-10-21T22:52:35.223Z,89.31
2023-10-21T22:55:56.877Z,89.37
2023-10-21T22:59:20.937Z,89.23
2023-10-21T23:02:45.497Z,89.52
2023-10-21T23:06:09.475Z,89.39
2023-10-21T23:09:37.569Z,89.48
2023-10-21T23:12:59.297Z,89.59
2023-10-21T23:16:21.644Z,89.52
2023-10-21T23:19:43.719Z,89.43
2023-10-21T23:23:08.462Z,89.67
2023-10-21T23:26:32.641Z,90.06
2023-10-21T23:29:54.369Z,90.00
2023-10-21T23:33:18.324Z,90.41
2023-10-21T23:36:41.314Z,90.46
2023-10-21T23:40:10.535Z,90.55
2023-10-21T23:43:32.769Z,90.06
2023-10-21T23:46:56.703Z,89.95
2023-10-21T23:50:20.785Z,90.20
2023-10-21T23:53:47.128Z,90.52
2023-10-21T23:57:17.212Z,90.33
